createdAt,value
2023-05-05T00:00:53.495Z,100876.84
2023-05-05T00:03:26.046Z,100877.00
2023-05-05T00:05:55.298Z,100881.34
2023-05-05T00:08:23.765Z,100872.09
2023-05-05T00:10:53.942Z,100877.75
2023-05-05T00:13:22.135Z,100871.72
2023-05-05T00:15:51.233Z,100877.53
2023-05-05T00:18:19.800Z,100872.50
2023-05-05T00:20:49.277Z,100870.97
2023-05-05T00:23:18.170Z,100867.91
2023-05-05T00:25:45.807Z,100869.91
2023-05-05T00:28:14.084Z,100868.38
2023-05-05T00:30:46.995Z,100860.66
2023-05-05T00:33:14.701Z,100861.81
2023-05-05T00:35:42.446Z,100864.78
2023-05-05T00:38:12.917Z,100864.22
2023-05-05T00:40:40.608Z,100855.69
2023-05-05T00:43:10.014Z,100852.34
2023-05-05T00:45:41.691Z,100854.47
2023-05-05T00:48:10.049Z,100851.09
2023-05-05T00:50:38.340Z,100861.94
2023-05-05T00:53:07.933Z,100859.41
2023-05-05T00:55:37.494Z,100848.88
2023-05-05T00:58:05.769Z,100857.91
2023-05-05T01:00:34.177Z,100842.16
2023-05-05T01:03:01.950Z,100849.50
2023-05-05T01:05:38.925Z,100847.09
2023-05-05T01:08:24.181Z,100841.22
2023-05-05T01:10:58.941Z,100831.81
2023-05-05T01:13:33.938Z,100836.47
2023-05-05T01:16:08.056Z,100827.22
2023-05-05T01:18:42.252Z,100823.16
2023-05-05T01:21:16.017Z,100832.44
2023-05-05T01:24:28.117Z,100831.94
2023-05-05T01:27:09.286Z,100836.88
2023-05-05T01:30:02.984Z,100830.97
2023-05-05T01:32:37.133Z,100829.75
2023-05-05T01:35:14.660Z,100822.03
2023-05-05T01:38:12.578Z,100830.34
2023-05-05T01:40:45.993Z,100822.63
2023-05-05T01:43:18.641Z,100819.25
2023-05-05T01:45:52.028Z,100820.25
2023-05-05T01:48:23.000Z,100824.91
2023-05-05T01:50:52.495Z,100818.72
2023-05-05T01:53:22.746Z,100814.38
2023-05-05T01:55:51.467Z,100812.56
2023-05-05T01:58:19.994Z,100807.22
2023-05-05T02:00:48.873Z,100806.38
2023-05-05T02:03:18.145Z,100805.38
2023-05-05T02:05:48.462Z,100806.38
2023-05-05T02:08:16.802Z,100807.22
2023-05-05T02:10:46.105Z,100813.38
2023-05-05T02:13:15.393Z,100806.38
2023-05-05T02:15:45.013Z,100807.34
2023-05-05T02:18:13.532Z,100818.00
2023-05-05T02:20:42.204Z,100814.66
2023-05-05T02:23:11.162Z,100812.16
2023-05-05T02:25:42.860Z,100814.13
2023-05-05T02:28:18.113Z,100810.91
2023-05-05T02:30:52.948Z,100813.03
2023-05-05T02:33:23.513Z,100817.81
2023-05-05T02:35:54.529Z,100815.44
2023-05-05T02:38:29.576Z,100812.09
2023-05-05T02:41:04.323Z,100809.84
2023-05-05T02:46:29.318Z,100809.44
2023-05-05T02:48:59.553Z,100803.28
2023-05-05T02:51:28.726Z,100813.94
2023-05-05T02:54:01.942Z,100808.75
2023-05-05T02:56:41.551Z,100804.41
2023-05-05T02:59:16.946Z,100807.09
2023-05-05T03:01:58.038Z,100822.09
2023-05-05T03:04:30.943Z,100819.44
2023-05-05T03:07:00.914Z,100824.91
2023-05-05T03:09:38.649Z,100819.59
2023-05-05T03:12:13.002Z,100810.75
2023-05-05T03:15:01.681Z,100811.41
2023-05-05T03:17:33.593Z,100806.09
2023-05-05T03:20:04.487Z,100807.75
2023-05-05T03:22:36.753Z,100814.94
2023-05-05T03:25:07.966Z,100821.25
2023-05-05T03:27:35.914Z,100824.75
2023-05-05T03:30:04.505Z,100823.78
2023-05-05T03:32:34.015Z,100816.91
2023-05-05T03:35:02.205Z,100812.41
2023-05-05T03:37:33.742Z,100817.44
2023-05-05T03:40:03.110Z,100820.25
2023-05-05T03:42:34.969Z,100818.16
2023-05-05T03:45:02.769Z,100816.31
2023-05-05T03:47:32.017Z,100813.78
2023-05-05T03:50:00.646Z,100822.63
2023-05-05T03:52:28.992Z,100824.34
2023-05-05T03:55:00.170Z,100830.50
2023-05-05T03:57:28.808Z,100820.69
2023-05-05T03:59:57.952Z,100831.34
2023-05-05T04:02:26.143Z,100830.19
2023-05-05T04:04:54.597Z,100825.03
2023-05-05T04:07:23.933Z,100826.69
2023-05-05T04:09:51.888Z,100827.84
2023-05-05T04:12:19.788Z,100830.50
2023-05-05T04:14:47.576Z,100830.34
2023-05-05T04:17:20.927Z,100834.16
2023-05-05T04:19:50.326Z,100832.47
2023-05-05T04:22:18.949Z,100834.16
2023-05-05T04:24:47.115Z,100831.34
2023-05-05T04:27:14.742Z,100838.63
2023-05-05T04:29:42.639Z,100837.66
2023-05-05T04:32:11.177Z,100842.16
2023-05-05T04:34:41.338Z,100829.66
2023-05-05T04:37:09.282Z,100837.66
2023-05-05T04:39:37.923Z,100837.66
2023-05-05T04:42:06.452Z,100849.72
2023-05-05T04:44:34.650Z,100853.22
2023-05-05T04:47:03.068Z,100856.34
2023-05-05T04:49:31.968Z,100847.63
2023-05-05T04:52:01.035Z,100844.28
2023-05-05T04:54:28.762Z,100851.44
2023-05-05T04:56:56.486Z,100854.25
2023-05-05T04:59:25.333Z,100851.59
2023-05-05T05:01:52.958Z,100847.22
2023-05-05T05:04:23.037Z,100847.22
2023-05-05T05:06:52.587Z,100847.38
2023-05-05T05:09:46.854Z,100860.56
2023-05-05T05:12:14.529Z,100868.56
2023-05-05T05:14:42.503Z,100866.72
2023-05-05T05:17:10.795Z,100868.28
2023-05-05T05:19:39.114Z,100869.38
2023-05-05T05:22:06.696Z,100880.06
2023-05-05T05:24:39.780Z,100870.94
2023-05-05T05:27:10.198Z,100865.13
2023-05-05T05:29:42.018Z,100870.63
2023-05-05T05:32:11.630Z,100878.72
2023-05-05T05:34:39.670Z,100889.38
2023-05-05T05:37:09.361Z,100901.13
2023-05-05T05:39:37.662Z,100908.56
2023-05-05T05:42:07.748Z,100906.97
2023-05-05T05:44:35.346Z,100911.56
2023-05-05T05:47:03.101Z,100906.34
2023-05-05T05:49:32.958Z,100919.81
2023-05-05T05:52:00.654Z,100925.97
2023-05-05T05:54:28.332Z,100925.22
2023-05-05T05:56:56.084Z,100930.19
2023-05-05T05:59:25.031Z,100934.34
2023-05-05T06:01:53.333Z,100943.00
2023-05-05T06:04:21.042Z,100947.81
2023-05-05T06:06:49.660Z,100956.47
2023-05-05T06:09:17.690Z,100942.03
2023-05-05T06:11:46.372Z,100950.78
2023-05-05T06:14:15.026Z,100950.53
2023-05-05T06:16:44.141Z,100952.47
2023-05-05T06:19:16.112Z,100954.53
2023-05-05T06:21:44.416Z,100956.44
2023-05-05T06:24:13.691Z,100966.19
2023-05-05T06:26:41.939Z,100963.44
2023-05-05T06:29:12.240Z,100974.72
2023-05-05T06:31:40.208Z,100969.25
2023-05-05T06:34:09.950Z,100969.84
2023-05-05T06:36:39.053Z,100961.34
2023-05-05T06:39:07.092Z,100956.69
2023-05-05T06:41:36.032Z,100956.41
2023-05-05T06:44:03.630Z,100955.78
2023-05-05T06:46:31.942Z,100959.72
2023-05-05T06:49:01.068Z,100958.22
2023-05-05T06:51:31.259Z,100962.97
2023-05-05T06:53:58.971Z,100974.88
2023-05-05T06:56:27.942Z,100975.75
2023-05-05T06:58:56.429Z,100968.50
2023-05-05T07:01:24.490Z,100967.34
2023-05-05T07:03:52.308Z,100969.53
2023-05-05T07:06:23.956Z,100962.13
2023-05-05T07:08:53.429Z,100959.44
2023-05-05T07:11:21.072Z,100954.94
2023-05-05T07:13:49.293Z,100957.22
2023-05-05T07:16:17.524Z,100962.94
2023-05-05T07:18:45.271Z,100952.28
2023-05-05T07:21:12.814Z,100961.81
2023-05-05T07:23:41.430Z,100960.44
2023-05-05T07:26:10.476Z,100967.59
2023-05-05T07:28:39.611Z,100962.28
2023-05-05T07:31:07.453Z,100968.63
2023-05-05T07:33:35.055Z,100970.34
2023-05-05T07:36:05.245Z,100975.31
2023-05-05T07:38:32.883Z,100980.59
2023-05-05T07:41:00.425Z,100980.66
2023-05-05T07:43:29.492Z,100985.97
2023-05-05T07:45:57.187Z,100989.06
2023-05-05T07:48:25.950Z,100996.22
2023-05-05T07:50:54.778Z,100997.88
2023-05-05T07:53:23.478Z,100992.94
2023-05-05T07:56:16.967Z,100999.53
2023-05-05T07:58:46.791Z,100990.56
2023-05-05T08:01:39.941Z,101000.59
2023-05-05T08:04:08.614Z,100998.00
2023-05-05T08:06:36.969Z,100998.44
2023-05-05T08:09:04.705Z,101001.25
2023-05-05T08:11:32.962Z,101006.91
2023-05-05T08:14:02.777Z,101003.00
2023-05-05T08:16:30.600Z,101011.56
2023-05-05T08:18:58.174Z,101017.97
2023-05-05T08:21:25.788Z,101018.44
2023-05-05T08:26:45.209Z,101024.22
2023-05-05T08:29:14.959Z,101025.13
2023-05-05T08:31:42.708Z,101029.63
2023-05-05T08:34:10.312Z,101022.81
2023-05-05T08:36:38.959Z,101032.03
2023-05-05T08:39:07.996Z,101026.75
2023-05-05T08:41:36.492Z,101025.25
2023-05-05T08:44:04.093Z,101030.72
2023-05-05T08:46:33.991Z,101033.34
2023-05-05T08:49:04.392Z,101032.84
2023-05-05T08:51:39.404Z,101032.16
2023-05-05T08:54:10.002Z,101023.72
2023-05-05T08:56:42.284Z,101024.47
2023-05-05T08:59:12.085Z,101025.34
2023-05-05T09:01:42.756Z,101027.84
2023-05-05T09:04:10.802Z,101028.06
2023-05-05T09:06:40.835Z,101027.47
2023-05-05T09:09:10.044Z,101026.03
2023-05-05T09:11:38.976Z,101024.91
2023-05-05T09:14:06.588Z,101012.09
2023-05-05T09:16:34.202Z,101015.72
2023-05-05T09:19:05.085Z,101012.91
2023-05-05T09:21:33.315Z,101010.56
2023-05-05T09:24:08.607Z,101014.41
2023-05-05T09:26:39.397Z,101011.78
2023-05-05T09:29:07.966Z,101018.06
2023-05-05T09:31:37.997Z,101008.75
2023-05-05T09:34:17.508Z,101010.50
2023-05-05T09:36:48.808Z,101015.09
2023-05-05T09:39:19.050Z,101004.50
2023-05-05T09:41:47.145Z,101002.25
2023-05-05T09:44:16.833Z,101011.66
2023-05-05T09:46:52.291Z,101009.38
2023-05-05T09:49:23.469Z,101008.56
2023-05-05T09:51:52.736Z,101008.16
2023-05-05T09:54:25.066Z,101000.88
2023-05-05T09:56:54.055Z,101001.31
2023-05-05T09:59:22.171Z,100996.13
2023-05-05T10:01:52.173Z,101006.41
2023-05-05T10:04:28.985Z,101005.34
2023-05-05T10:06:59.986Z,101008.50
2023-05-05T10:09:29.030Z,101003.47
2023-05-05T10:11:58.703Z,101003.69
2023-05-05T10:14:28.059Z,101009.53
2023-05-05T10:16:56.400Z,101011.66
2023-05-05T10:19:25.454Z,101023.94
2023-05-05T10:22:00.968Z,101011.41
2023-05-05T10:24:40.072Z,101015.38
2023-05-05T10:30:07.737Z,101012.06
2023-05-05T10:35:17.212Z,101007.47
2023-05-05T10:37:48.973Z,101007.66
2023-05-05T10:40:21.991Z,101004.97
2023-05-05T10:42:51.248Z,100998.28
2023-05-05T10:45:18.876Z,101005.34
2023-05-05T10:47:46.778Z,100994.94
2023-05-05T10:50:18.868Z,100984.94
2023-05-05T10:52:57.560Z,100992.00
2023-05-05T10:55:33.142Z,100983.44
2023-05-05T10:58:01.635Z,100987.03
2023-05-05T11:00:53.928Z,100981.19
2023-05-05T11:03:25.678Z,100977.22
2023-05-05T11:06:13.484Z,100979.28
2023-05-05T11:08:44.523Z,100966.38
2023-05-05T11:11:13.590Z,100968.44
2023-05-05T11:13:42.482Z,100963.84
2023-05-05T11:16:45.649Z,100960.94
2023-05-05T11:19:55.867Z,100958.22
2023-05-05T11:22:23.449Z,100957.81
2023-05-05T11:24:53.981Z,100958.66
2023-05-05T11:27:22.094Z,100945.53
2023-05-05T11:30:10.630Z,100935.91
2023-05-05T11:32:38.515Z,100947.81
2023-05-05T11:35:08.816Z,100941.56
2023-05-05T11:37:39.005Z,100940.09
2023-05-05T11:40:22.005Z,100933.00
2023-05-05T11:42:50.576Z,100938.41
2023-05-05T11:45:22.749Z,100931.75
2023-05-05T11:47:50.692Z,100938.63
2023-05-05T11:50:21.549Z,100930.28
2023-05-05T11:52:49.503Z,100931.34
2023-05-05T11:55:25.695Z,100924.03
2023-05-05T11:57:53.943Z,100923.19
2023-05-05T12:00:33.541Z,100914.44
2023-05-05T12:03:26.455Z,100910.28
2023-05-05T12:05:57.079Z,100906.94
2023-05-05T12:08:25.418Z,100903.56
2023-05-05T12:10:55.013Z,100906.50
2023-05-05T12:13:23.656Z,100909.63
2023-05-05T12:15:52.132Z,100911.91
2023-05-05T12:18:21.125Z,100908.13
2023-05-05T12:20:52.797Z,100900.41
2023-05-05T12:23:20.625Z,100912.75
2023-05-05T12:25:50.001Z,100899.00
2023-05-05T12:28:18.985Z,100903.19
2023-05-05T12:30:57.474Z,100895.47
2023-05-05T12:33:25.332Z,100902.34
2023-05-05T12:35:53.050Z,100895.69
2023-05-05T12:38:20.657Z,100889.00
2023-05-05T12:40:51.997Z,100891.09
2023-05-05T12:43:34.102Z,100890.47
2023-05-05T12:46:07.572Z,100906.53
2023-05-05T12:48:38.748Z,100891.31
2023-05-05T12:51:18.141Z,100897.75
2023-05-05T12:53:47.361Z,100892.75
2023-05-05T12:56:35.055Z,100889.84
2023-05-05T12:59:06.549Z,100884.84
2023-05-05T13:01:34.902Z,100891.50
2023-05-05T13:04:11.174Z,100878.78
2023-05-05T13:06:39.573Z,100883.19
2023-05-05T13:09:22.827Z,100880.88
2023-05-05T13:11:50.576Z,100870.47
2023-05-05T13:14:20.991Z,100879.22
2023-05-05T13:16:48.814Z,100882.53
2023-05-05T13:19:16.544Z,100877.56
2023-05-05T13:21:45.562Z,100873.81
2023-05-05T13:24:28.118Z,100877.75
2023-05-05T13:26:59.253Z,100876.91
2023-05-05T13:29:31.341Z,100879.19
2023-05-05T13:32:00.690Z,100888.97
2023-05-05T13:34:29.143Z,100886.91
2023-05-05T13:36:57.588Z,100889.59
2023-05-05T13:39:26.566Z,100893.97
2023-05-05T13:41:54.760Z,100900.22
2023-05-05T13:44:22.348Z,100906.84
2023-05-05T13:46:51.318Z,100924.28
2023-05-05T13:49:20.000Z,100945.25
2023-05-05T13:51:47.706Z,100943.16
2023-05-05T13:54:15.342Z,100948.97
2023-05-05T13:56:44.024Z,100947.06
2023-05-05T13:59:11.631Z,100913.69
2023-05-05T14:01:39.485Z,100898.09
2023-05-05T14:04:09.089Z,100909.34
2023-05-05T14:06:36.845Z,100921.38
2023-05-05T14:09:06.209Z,100905.84
2023-05-05T14:11:34.601Z,100915.22
2023-05-05T14:14:02.762Z,100920.88
2023-05-05T14:16:30.427Z,100922.94
2023-05-05T14:18:58.066Z,100915.44
2023-05-05T14:21:27.814Z,100935.75
2023-05-05T14:23:56.029Z,100936.38
2023-05-05T14:26:24.497Z,100934.78
2023-05-05T14:28:52.093Z,100932.63
2023-05-05T14:31:20.109Z,100945.78
2023-05-05T14:33:48.017Z,100947.97
2023-05-05T14:36:15.614Z,100956.44
2023-05-05T14:38:45.121Z,100963.81
2023-05-05T14:41:14.026Z,100966.88
2023-05-05T14:43:42.879Z,100983.25
2023-05-05T14:46:10.558Z,100981.63
2023-05-05T14:48:38.261Z,100984.38
2023-05-05T14:51:06.039Z,100990.75
2023-05-05T14:53:33.720Z,100989.94
2023-05-05T14:56:03.091Z,100997.03
2023-05-05T14:58:31.700Z,101004.94
2023-05-05T15:01:00.339Z,101009.13
2023-05-05T15:03:28.881Z,101006.44
2023-05-05T15:05:56.507Z,101008.94
2023-05-05T15:08:24.383Z,101002.91
2023-05-05T15:10:52.095Z,101009.06
2023-05-05T15:13:21.139Z,101003.81
2023-05-05T15:15:49.913Z,101020.84
2023-05-05T15:18:17.922Z,101014.09
2023-05-05T15:20:45.512Z,101026.09
2023-05-05T15:23:13.145Z,101022.75
2023-05-05T15:25:40.729Z,101023.84
2023-05-05T15:28:08.335Z,101021.81
2023-05-05T15:30:37.343Z,101021.06
2023-05-05T15:33:05.066Z,101014.53
2023-05-05T15:35:32.710Z,101020.00
2023-05-05T15:38:00.447Z,101011.41
2023-05-05T15:40:28.112Z,101008.91
2023-05-05T15:42:56.685Z,101012.44
2023-05-05T15:45:24.921Z,101019.91
2023-05-05T15:47:54.768Z,101026.28
2023-05-05T15:50:23.274Z,101031.63
2023-05-05T15:52:50.917Z,101033.47
2023-05-05T15:55:20.211Z,101035.50
2023-05-05T15:57:48.416Z,101039.00
2023-05-05T16:00:42.026Z,101044.03
2023-05-05T16:03:11.518Z,101062.31
2023-05-05T16:05:39.537Z,101072.19
2023-05-05T16:08:09.877Z,101067.31
2023-05-05T16:10:37.713Z,101072.66
2023-05-05T16:13:05.590Z,101033.31
2023-05-05T16:15:33.192Z,101033.47
2023-05-05T16:18:00.812Z,101013.41
2023-05-05T16:20:29.978Z,100999.94
2023-05-05T16:22:57.843Z,100989.41
2023-05-05T16:25:25.519Z,100994.91
2023-05-05T16:27:56.454Z,100988.72
2023-05-05T16:30:24.475Z,100993.22
2023-05-05T16:32:52.293Z,100980.13
2023-05-05T16:35:20.203Z,100985.31
2023-05-05T16:37:49.912Z,100986.16
2023-05-05T16:40:18.036Z,100997.03
2023-05-05T16:42:45.808Z,101001.53
2023-05-05T16:45:13.492Z,101004.88
2023-05-05T16:47:41.954Z,101013.94
2023-05-05T16:50:10.188Z,101016.75
2023-05-05T16:52:37.833Z,101020.28
2023-05-05T16:55:07.595Z,101026.63
2023-05-05T16:57:35.474Z,101031.28
2023-05-05T17:00:03.254Z,101031.06
2023-05-05T17:02:30.965Z,101024.34
2023-05-05T17:04:58.656Z,101024.47
2023-05-05T17:07:26.425Z,101028.00
2023-05-05T17:09:55.678Z,101016.31
2023-05-05T17:12:24.608Z,101007.97
2023-05-05T17:14:52.261Z,101016.00
2023-05-05T17:17:19.965Z,101014.31
2023-05-05T17:19:47.616Z,101000.09
2023-05-05T17:22:16.396Z,101000.25
2023-05-05T17:24:43.976Z,101005.75
2023-05-05T17:27:12.652Z,101004.63
2023-05-05T17:29:41.668Z,100998.72
2023-05-05T17:32:10.078Z,101009.59
2023-05-05T17:34:37.744Z,101015.78
2023-05-05T17:37:05.371Z,101020.28
2023-05-05T17:39:33.480Z,101025.81
2023-05-05T17:42:01.123Z,101023.66
2023-05-05T17:44:28.916Z,101016.78
2023-05-05T17:46:59.035Z,101017.38
2023-05-05T17:49:26.780Z,101018.50
2023-05-05T17:51:54.395Z,101011.50
2023-05-05T17:54:21.993Z,101019.50
2023-05-05T17:56:49.593Z,101023.88
2023-05-05T17:59:18.038Z,101025.56
2023-05-05T18:01:45.843Z,101026.94
2023-05-05T18:04:14.916Z,101032.28
2023-05-05T18:06:42.498Z,101043.16
2023-05-05T18:09:11.258Z,101044.44
2023-05-05T18:11:38.972Z,101043.91
2023-05-05T18:14:06.592Z,101043.44
2023-05-05T18:16:34.153Z,101036.41
2023-05-05T18:19:02.445Z,101040.75
2023-05-05T18:21:31.931Z,101034.56
2023-05-05T18:24:11.474Z,101031.91
2023-05-05T18:26:48.599Z,101037.25
2023-05-05T18:29:16.462Z,101028.25
2023-05-05T18:31:44.570Z,101031.06
2023-05-05T18:34:12.306Z,101029.53
2023-05-05T18:36:41.296Z,101027.03
2023-05-05T18:39:08.849Z,101029.00
2023-05-05T18:41:36.987Z,101032.81
2023-05-05T18:44:04.801Z,101032.28
2023-05-05T18:46:33.068Z,101035.28
2023-05-05T18:49:01.176Z,101042.75
2023-05-05T18:51:28.917Z,101048.41
2023-05-05T18:53:57.950Z,101055.03
2023-05-05T18:56:25.578Z,101056.19
2023-05-05T18:58:53.257Z,101052.97
2023-05-05T19:01:21.620Z,101057.91
2023-05-05T19:03:49.741Z,101063.56
2023-05-05T19:06:17.917Z,101056.00
2023-05-05T19:08:47.128Z,101050.09
2023-05-05T19:11:16.879Z,101055.03
2023-05-05T19:13:44.525Z,101056.19
2023-05-05T19:16:16.136Z,101056.06
2023-05-05T19:18:43.930Z,101060.03
2023-05-05T19:21:11.633Z,101070.91
2023-05-05T19:23:39.377Z,101075.84
2023-05-05T19:26:06.950Z,101069.25
2023-05-05T19:28:36.115Z,101063.50
2023-05-05T19:31:03.912Z,101053.09
2023-05-05T19:33:31.484Z,101053.38
2023-05-05T19:35:59.550Z,101068.72
2023-05-05T19:38:29.045Z,101070.13
2023-05-05T19:40:56.626Z,101071.28
2023-05-05T19:43:24.176Z,101081.25
2023-05-05T19:45:54.089Z,101076.03
2023-05-05T19:48:21.936Z,101078.31
2023-05-05T19:50:49.635Z,101077.88
2023-05-05T19:53:17.554Z,101074.78
2023-05-05T19:55:45.991Z,101074.38
2023-05-05T19:58:15.035Z,101071.31
2023-05-05T20:00:42.695Z,101073.56
2023-05-05T20:03:11.986Z,101070.31
2023-05-05T20:05:40.229Z,101075.25
2023-05-05T20:08:07.941Z,101076.22
2023-05-05T20:10:36.483Z,101081.03
2023-05-05T20:13:04.202Z,101078.63
2023-05-05T20:15:33.229Z,101077.94
2023-05-05T20:18:00.972Z,101077.34
2023-05-05T20:20:30.398Z,101074.00
2023-05-05T20:22:57.969Z,101068.22
2023-05-05T20:25:25.609Z,101073.84
2023-05-05T20:27:53.189Z,101078.75
2023-05-05T20:30:20.877Z,101081.00
2023-05-05T20:32:48.444Z,101077.63
2023-05-05T20:35:16.201Z,101080.44
2023-05-05T20:37:46.072Z,101079.84
2023-05-05T20:40:15.052Z,101086.31
2023-05-05T20:42:42.740Z,101073.25
2023-05-05T20:45:12.053Z,101071.56
2023-05-05T20:47:40.196Z,101063.72
2023-05-05T20:50:09.079Z,101071.13
2023-05-05T20:52:37.055Z,101069.16
2023-05-05T20:55:07.182Z,101069.56
2023-05-05T20:57:34.815Z,101076.88
2023-05-05T21:00:02.623Z,101065.78
2023-05-05T21:02:32.207Z,101066.16
2023-05-05T21:05:02.795Z,101060.41
2023-05-05T21:07:31.160Z,101061.50
2023-05-05T21:09:58.789Z,101056.31
2023-05-05T21:12:28.059Z,101059.22
2023-05-05T21:14:58.597Z,101065.69
2023-05-05T21:17:28.085Z,101053.59
2023-05-05T21:19:57.376Z,101050.38
2023-05-05T21:22:25.186Z,101055.13
2023-05-05T21:24:53.455Z,101046.56
2023-05-05T21:27:21.488Z,101060.31
2023-05-05T21:29:52.033Z,101061.53
2023-05-05T21:32:21.203Z,101070.06
2023-05-05T21:34:48.879Z,101069.63
2023-05-05T21:37:16.452Z,101063.59
2023-05-05T21:39:44.576Z,101071.84
2023-05-05T21:42:15.043Z,101071.97
2023-05-05T21:44:43.138Z,101065.22
2023-05-05T21:47:12.424Z,101069.97
2023-05-05T21:49:41.093Z,101074.72
2023-05-05T21:52:08.660Z,101064.34
2023-05-05T21:54:36.587Z,101070.19
2023-05-05T21:57:04.788Z,101068.75
2023-05-05T21:59:32.560Z,101070.81
2023-05-05T22:02:04.175Z,101068.44
2023-05-05T22:04:34.063Z,101068.81
2023-05-05T22:07:02.057Z,101069.91
2023-05-05T22:09:29.657Z,101067.66
2023-05-05T22:11:58.444Z,101069.16
2023-05-05T22:14:27.557Z,101066.03
2023-05-05T22:16:55.722Z,101069.94
2023-05-05T22:19:23.724Z,101069.31
2023-05-05T22:21:53.299Z,101069.59
2023-05-05T22:24:21.822Z,101070.59
2023-05-05T22:26:49.385Z,101071.66
2023-05-05T22:29:16.976Z,101078.22
2023-05-05T22:31:44.582Z,101078.59
2023-05-05T22:34:12.575Z,101078.84
2023-05-05T22:36:40.179Z,101073.94
2023-05-05T22:39:10.064Z,101074.03
2023-05-05T22:41:38.305Z,101075.00
2023-05-05T22:44:06.847Z,101072.63
2023-05-05T22:46:34.687Z,101072.88
2023-05-05T22:49:02.337Z,101073.97
2023-05-05T22:51:30.239Z,101075.06
2023-05-05T22:54:00.586Z,101072.66
2023-05-05T22:56:30.137Z,101073.75
2023-05-05T22:58:58.363Z,101077.38
2023-05-05T23:01:26.266Z,101072.28
2023-05-05T23:03:53.970Z,101074.47
2023-05-05T23:06:47.174Z,101067.72
2023-05-05T23:09:14.793Z,101069.66
2023-05-05T23:11:43.696Z,101071.59
2023-05-05T23:14:11.371Z,101074.38
2023-05-05T23:16:39.075Z,101076.31
2023-05-05T23:19:07.564Z,101074.75
2023-05-05T23:21:49.408Z,101068.84
2023-05-05T23:24:21.708Z,101070.88
2023-05-05T23:26:51.955Z,101069.34
2023-05-05T23:29:19.971Z,101071.25
2023-05-05T23:31:47.865Z,101073.34
2023-05-05T23:34:16.162Z,101074.41
2023-05-05T23:36:44.065Z,101070.34
2023-05-05T23:39:11.705Z,101070.44
2023-05-05T23:41:41.141Z,101072.50
2023-05-05T23:44:11.145Z,101080.72
2023-05-05T23:46:39.212Z,101081.81
2023-05-05T23:49:06.886Z,101068.66
2023-05-05T23:51:36.057Z,101069.72
2023-05-05T23:54:03.622Z,101072.50
2023-05-05T23:56:31.443Z,101070.22
2023-05-05T23:58:59.398Z,101070.47
